sensor_id;sensor_type;location;lat;lon;timestamp;P1;durP1;ratioP1;P2;durP2;ratioP2
65210;SDS011;51794;52.758;55.792;2022-08-21T00:00:07;12.07;;;8.50;;
65210;SDS011;51794;52.758;55.792;2022-08-21T00:02:43;12.20;;;8.55;;
65210;SDS011;51794;52.758;55.792;2022-08-21T00:05:11;12.20;;;8.40;;
65210;SDS011;51794;52.758;55.792;2022-08-21T00:07:38;11.57;;;8.10;;
65210;SDS011;51794;52.758;55.792;2022-08-21T00:10:04;11.07;;;9.23;;
65210;SDS011;51794;52.758;55.792;2022-08-21T00:12:31;12.38;;;9.63;;
65210;SDS011;51794;52.758;55.792;2022-08-21T00:14:57;13.90;;;8.80;;
65210;SDS011;51794;52.758;55.792;2022-08-21T00:17:24;17.40;;;9.40;;
65210;SDS011;51794;52.758;55.792;2022-08-21T00:19:50;12.50;;;8.55;;
65210;SDS011;51794;52.758;55.792;2022-08-21T00:22:16;14.50;;;8.43;;
65210;SDS011;51794;52.758;55.792;2022-08-21T00:24:42;11.90;;;8.30;;
65210;SDS011;51794;52.758;55.792;2022-08-21T00:27:08;13.45;;;8.73;;
65210;SDS011;51794;52.758;55.792;2022-08-21T00:29:34;13.48;;;8.65;;
65210;SDS011;51794;52.758;55.792;2022-08-21T00:32:00;12.15;;;8.60;;
65210;SDS011;51794;52.758;55.792;2022-08-21T00:34:26;13.50;;;8.82;;
65210;SDS011;51794;52.758;55.792;2022-08-21T00:36:52;12.85;;;9.10;;
65210;SDS011;51794;52.758;55.792;2022-08-21T00:39:18;13.13;;;8.95;;
65210;SDS011;51794;52.758;55.792;2022-08-21T00:41:44;12.73;;;8.52;;
65210;SDS011;51794;52.758;55.792;2022-08-21T00:44:11;14.57;;;9.70;;
65210;SDS011;51794;52.758;55.792;2022-08-21T00:46:39;11.93;;;8.82;;
65210;SDS011;51794;52.758;55.792;2022-08-21T00:49:07;11.05;;;8.93;;
65210;SDS011;51794;52.758;55.792;2022-08-21T00:51:36;12.10;;;10.05;;
65210;SDS011;51794;52.758;55.792;2022-08-21T00:54:07;17.25;;;9.52;;
65210;SDS011;51794;52.758;55.792;2022-08-21T00:56:35;12.80;;;9.75;;
65210;SDS011;51794;52.758;55.792;2022-08-21T00:59:02;14.18;;;10.05;;
65210;SDS011;51794;52.758;55.792;2022-08-21T01:01:29;12.00;;;9.88;;
65210;SDS011;51794;52.758;55.792;2022-08-21T01:03:55;11.27;;;9.15;;
65210;SDS011;51794;52.758;55.792;2022-08-21T01:06:21;13.40;;;10.40;;
65210;SDS011;51794;52.758;55.792;2022-08-21T01:08:47;13.32;;;9.27;;
65210;SDS011;51794;52.758;55.792;2022-08-21T01:11:14;12.30;;;9.80;;
65210;SDS011;51794;52.758;55.792;2022-08-21T01:13:40;13.82;;;9.98;;
65210;SDS011;51794;52.758;55.792;2022-08-21T01:16:12;15.40;;;9.88;;
65210;SDS011;51794;52.758;55.792;2022-08-21T01:18:43;14.05;;;10.35;;
65210;SDS011;51794;52.758;55.792;2022-08-21T01:21:19;14.02;;;9.65;;
65210;SDS011;51794;52.758;55.792;2022-08-21T01:23:50;13.13;;;9.88;;
65210;SDS011;51794;52.758;55.792;2022-08-21T01:26:19;11.82;;;8.95;;
65210;SDS011;51794;52.758;55.792;2022-08-21T01:28:54;14.35;;;10.27;;
65210;SDS011;51794;52.758;55.792;2022-08-21T01:31:28;14.55;;;9.55;;
65210;SDS011;51794;52.758;55.792;2022-08-21T01:33:56;13.90;;;9.07;;
65210;SDS011;51794;52.758;55.792;2022-08-21T01:36:23;13.38;;;9.88;;
65210;SDS011;51794;52.758;55.792;2022-08-21T01:38:49;14.60;;;10.13;;
65210;SDS011;51794;52.758;55.792;2022-08-21T01:41:16;16.70;;;9.82;;
65210;SDS011;51794;52.758;55.792;2022-08-21T01:43:42;12.95;;;9.43;;
65210;SDS011;51794;52.758;55.792;2022-08-21T01:46:09;12.07;;;8.85;;
65210;SDS011;51794;52.758;55.792;2022-08-21T01:48:37;11.68;;;9.80;;
65210;SDS011;51794;52.758;55.792;2022-08-21T01:51:04;12.13;;;9.05;;
65210;SDS011;51794;52.758;55.792;2022-08-21T01:53:31;15.10;;;8.70;;
65210;SDS011;51794;52.758;55.792;2022-08-21T01:55:59;12.57;;;8.70;;
65210;SDS011;51794;52.758;55.792;2022-08-21T01:58:25;14.25;;;9.10;;
65210;SDS011;51794;52.758;55.792;2022-08-21T02:00:51;13.05;;;8.77;;
65210;SDS011;51794;52.758;55.792;2022-08-21T02:03:17;11.77;;;9.05;;
65210;SDS011;51794;52.758;55.792;2022-08-21T02:05:43;12.45;;;8.88;;
65210;SDS011;51794;52.758;55.792;2022-08-21T02:08:09;14.23;;;9.23;;
65210;SDS011;51794;52.758;55.792;2022-08-21T02:10:35;10.82;;;9.07;;
65210;SDS011;51794;52.758;55.792;2022-08-21T02:13:01;11.63;;;9.18;;
65210;SDS011;51794;52.758;55.792;2022-08-21T02:15:28;11.63;;;9.13;;
65210;SDS011;51794;52.758;55.792;2022-08-21T02:17:55;11.68;;;8.63;;
65210;SDS011;51794;52.758;55.792;2022-08-21T02:20:25;14.48;;;9.20;;
65210;SDS011;51794;52.758;55.792;2022-08-21T02:23:20;11.60;;;9.00;;
65210;SDS011;51794;52.758;55.792;2022-08-21T02:25:46;11.90;;;9.32;;
65210;SDS011;51794;52.758;55.792;2022-08-21T02:28:13;10.32;;;8.95;;
65210;SDS011;51794;52.758;55.792;2022-08-21T02:30:42;9.95;;;8.38;;
65210;SDS011;51794;52.758;55.792;2022-08-21T02:33:12;10.52;;;8.57;;
65210;SDS011;51794;52.758;55.792;2022-08-21T02:35:40;12.88;;;9.25;;
65210;SDS011;51794;52.758;55.792;2022-08-21T02:38:12;10.48;;;8.80;;
65210;SDS011;51794;52.758;55.792;2022-08-21T02:40:42;10.73;;;9.30;;
65210;SDS011;51794;52.758;55.792;2022-08-21T02:43:09;9.40;;;8.30;;
65210;SDS011;51794;52.758;55.792;2022-08-21T02:45:36;14.40;;;8.70;;
65210;SDS011;51794;52.758;55.792;2022-08-21T02:48:05;15.93;;;9.18;;
65210;SDS011;51794;52.758;55.792;2022-08-21T02:50:34;12.07;;;8.73;;
65210;SDS011;51794;52.758;55.792;2022-08-21T02:53:06;13.82;;;9.35;;
65210;SDS011;51794;52.758;55.792;2022-08-21T02:55:34;12.60;;;8.93;;
65210;SDS011;51794;52.758;55.792;2022-08-21T02:58:02;9.75;;;8.85;;
65210;SDS011;51794;52.758;55.792;2022-08-21T03:00:30;11.55;;;9.00;;
65210;SDS011;51794;52.758;55.792;2022-08-21T03:02:57;11.43;;;8.63;;
65210;SDS011;51794;52.758;55.792;2022-08-21T03:05:25;10.50;;;9.43;;
65210;SDS011;51794;52.758;55.792;2022-08-21T03:07:52;11.60;;;9.25;;
65210;SDS011;51794;52.758;55.792;2022-08-21T03:10:20;12.32;;;9.30;;
65210;SDS011;51794;52.758;55.792;2022-08-21T03:12:47;10.98;;;9.30;;
65210;SDS011;51794;52.758;55.792;2022-08-21T03:15:15;12.50;;;9.48;;
65210;SDS011;51794;52.758;55.792;2022-08-21T03:17:42;10.07;;;8.50;;
65210;SDS011;51794;52.758;55.792;2022-08-21T03:20:09;9.85;;;8.80;;
65210;SDS011;51794;52.758;55.792;2022-08-21T03:22:36;11.52;;;8.63;;
65210;SDS011;51794;52.758;55.792;2022-08-21T03:25:02;10.95;;;8.50;;
65210;SDS011;51794;52.758;55.792;2022-08-21T03:27:29;12.27;;;8.73;;
65210;SDS011;51794;52.758;55.792;2022-08-21T03:29:56;11.77;;;9.25;;
65210;SDS011;51794;52.758;55.792;2022-08-21T03:32:22;12.57;;;8.73;;
65210;SDS011;51794;52.758;55.792;2022-08-21T03:34:49;9.85;;;8.85;;
65210;SDS011;51794;52.758;55.792;2022-08-21T03:37:15;14.25;;;8.57;;
65210;SDS011;51794;52.758;55.792;2022-08-21T03:39:41;11.18;;;8.32;;
65210;SDS011;51794;52.758;55.792;2022-08-21T03:42:07;9.93;;;7.90;;
65210;SDS011;51794;52.758;55.792;2022-08-21T03:44:34;10.38;;;8.20;;
65210;SDS011;51794;52.758;55.792;2022-08-21T03:47:00;8.80;;;7.90;;
65210;SDS011;51794;52.758;55.792;2022-08-21T03:49:26;10.77;;;8.57;;
65210;SDS011;51794;52.758;55.792;2022-08-21T03:51:53;9.63;;;8.60;;
65210;SDS011;51794;52.758;55.792;2022-08-21T03:54:19;12.73;;;8.25;;
65210;SDS011;51794;52.758;55.792;2022-08-21T03:56:45;12.88;;;9.10;;
65210;SDS011;51794;52.758;55.792;2022-08-21T03:59:11;9.95;;;7.65;;
65210;SDS011;51794;52.758;55.792;2022-08-21T04:01:37;10.70;;;8.38;;
65210;SDS011;51794;52.758;55.792;2022-08-21T04:04:04;8.63;;;7.68;;
65210;SDS011;51794;52.758;55.792;2022-08-21T04:06:31;12.02;;;8.52;;
65210;SDS011;51794;52.758;55.792;2022-08-21T04:08:57;11.73;;;8.40;;
65210;SDS011;51794;52.758;55.792;2022-08-21T04:11:23;11.18;;;8.88;;
65210;SDS011;51794;52.758;55.792;2022-08-21T04:13:49;13.25;;;8.60;;
65210;SDS011;51794;52.758;55.792;2022-08-21T04:16:15;10.68;;;8.73;;
65210;SDS011;51794;52.758;55.792;2022-08-21T04:18:41;9.57;;;8.65;;
65210;SDS011;51794;52.758;55.792;2022-08-21T04:21:09;11.52;;;9.70;;
65210;SDS011;51794;52.758;55.792;2022-08-21T04:23:37;10.90;;;9.00;;
65210;SDS011;51794;52.758;55.792;2022-08-21T04:26:03;12.18;;;8.82;;
65210;SDS011;51794;52.758;55.792;2022-08-21T04:28:29;11.45;;;8.80;;
65210;SDS011;51794;52.758;55.792;2022-08-21T04:30:55;10.82;;;8.27;;
65210;SDS011;51794;52.758;55.792;2022-08-21T04:33:22;11.77;;;9.18;;
65210;SDS011;51794;52.758;55.792;2022-08-21T04:35:48;10.80;;;8.85;;
65210;SDS011;51794;52.758;55.792;2022-08-21T04:38:15;14.13;;;8.93;;
65210;SDS011;51794;52.758;55.792;2022-08-21T04:40:41;10.25;;;8.50;;
65210;SDS011;51794;52.758;55.792;2022-08-21T04:43:08;10.32;;;7.82;;
65210;SDS011;51794;52.758;55.792;2022-08-21T04:45:36;11.10;;;8.38;;
65210;SDS011;51794;52.758;55.792;2022-08-21T04:48:05;15.38;;;8.45;;
65210;SDS011;51794;52.758;55.792;2022-08-21T04:53:26;11.95;;;8.82;;
65210;SDS011;51794;52.758;55.792;2022-08-21T04:55:57;10.43;;;7.90;;
65210;SDS011;51794;52.758;55.792;2022-08-21T04:58:27;11.13;;;8.45;;
65210;SDS011;51794;52.758;55.792;2022-08-21T05:00:54;10.73;;;8.13;;
65210;SDS011;51794;52.758;55.792;2022-08-21T05:03:23;10.63;;;7.68;;
65210;SDS011;51794;52.758;55.792;2022-08-21T05:05:49;11.13;;;7.72;;
65210;SDS011;51794;52.758;55.792;2022-08-21T05:08:16;13.75;;;8.32;;
65210;SDS011;51794;52.758;55.792;2022-08-21T05:10:44;10.70;;;8.70;;
65210;SDS011;51794;52.758;55.792;2022-08-21T05:13:11;8.82;;;7.88;;
65210;SDS011;51794;52.758;55.792;2022-08-21T05:15:39;9.77;;;8.60;;
65210;SDS011;51794;52.758;55.792;2022-08-21T05:18:05;12.40;;;8.65;;
65210;SDS011;51794;52.758;55.792;2022-08-21T05:20:32;10.63;;;8.90;;
65210;SDS011;51794;52.758;55.792;2022-08-21T05:25:33;10.20;;;8.63;;
65210;SDS011;51794;52.758;55.792;2022-08-21T05:27:59;11.38;;;8.60;;
65210;SDS011;51794;52.758;55.792;2022-08-21T05:30:25;11.55;;;8.88;;
65210;SDS011;51794;52.758;55.792;2022-08-21T05:32:56;9.77;;;8.77;;
65210;SDS011;51794;52.758;55.792;2022-08-21T05:35:23;8.93;;;8.02;;
65210;SDS011;51794;52.758;55.792;2022-08-21T05:37:50;9.18;;;8.27;;
65210;SDS011;51794;52.758;55.792;2022-08-21T05:40:35;11.10;;;8.75;;
65210;SDS011;51794;52.758;55.792;2022-08-21T05:43:00;9.93;;;8.93;;
65210;SDS011;51794;52.758;55.792;2022-08-21T05:45:28;10.85;;;8.80;;
65210;SDS011;51794;52.758;55.792;2022-08-21T05:47:58;11.55;;;9.27;;
65210;SDS011;51794;52.758;55.792;2022-08-21T05:50:30;12.63;;;9.25;;
65210;SDS011;51794;52.758;55.792;2022-08-21T05:52:56;11.52;;;8.70;;
65210;SDS011;51794;52.758;55.792;2022-08-21T05:55:22;9.38;;;8.48;;
65210;SDS011;51794;52.758;55.792;2022-08-21T05:57:48;11.80;;;8.40;;
65210;SDS011;51794;52.758;55.792;2022-08-21T06:00:14;10.43;;;8.57;;
65210;SDS011;51794;52.758;55.792;2022-08-21T06:02:41;9.55;;;8.05;;
65210;SDS011;51794;52.758;55.792;2022-08-21T06:05:07;9.35;;;8.10;;
65210;SDS011;51794;52.758;55.792;2022-08-21T06:07:33;10.70;;;8.20;;
65210;SDS011;51794;52.758;55.792;2022-08-21T06:10:00;11.80;;;7.97;;
65210;SDS011;51794;52.758;55.792;2022-08-21T06:12:26;9.00;;;7.28;;
65210;SDS011;51794;52.758;55.792;2022-08-21T06:14:52;8.43;;;6.78;;
65210;SDS011;51794;52.758;55.792;2022-08-21T06:17:18;8.98;;;7.68;;
65210;SDS011;51794;52.758;55.792;2022-08-21T06:19:44;7.70;;;7.00;;
65210;SDS011;51794;52.758;55.792;2022-08-21T06:22:10;10.48;;;7.97;;
65210;SDS011;51794;52.758;55.792;2022-08-21T06:24:36;11.75;;;9.25;;
65210;SDS011;51794;52.758;55.792;2022-08-21T06:27:06;9.40;;;8.40;;
65210;SDS011;51794;52.758;55.792;2022-08-21T06:29:33;9.35;;;7.97;;
65210;SDS011;51794;52.758;55.792;2022-08-21T06:32:00;8.50;;;7.50;;
65210;SDS011;51794;52.758;55.792;2022-08-21T06:34:27;9.85;;;8.15;;
65210;SDS011;51794;52.758;55.792;2022-08-21T06:36:53;8.05;;;6.97;;
65210;SDS011;51794;52.758;55.792;2022-08-21T06:39:19;8.95;;;7.25;;
65210;SDS011;51794;52.758;55.792;2022-08-21T06:41:45;8.90;;;7.00;;
65210;SDS011;51794;52.758;55.792;2022-08-21T06:44:11;8.73;;;7.30;;
65210;SDS011;51794;52.758;55.792;2022-08-21T06:46:37;11.02;;;7.53;;
65210;SDS011;51794;52.758;55.792;2022-08-21T06:49:03;9.73;;;7.50;;
65210;SDS011;51794;52.758;55.792;2022-08-21T06:51:29;9.02;;;7.80;;
65210;SDS011;51794;52.758;55.792;2022-08-21T06:53:55;10.48;;;7.22;;
65210;SDS011;51794;52.758;55.792;2022-08-21T06:56:21;8.32;;;7.15;;
65210;SDS011;51794;52.758;55.792;2022-08-21T06:58:47;8.68;;;7.35;;
65210;SDS011;51794;52.758;55.792;2022-08-21T07:01:13;8.18;;;7.25;;
65210;SDS011;51794;52.758;55.792;2022-08-21T07:03:39;8.25;;;7.50;;
65210;SDS011;51794;52.758;55.792;2022-08-21T07:06:08;8.63;;;7.72;;
65210;SDS011;51794;52.758;55.792;2022-08-21T07:08:36;10.60;;;7.68;;
65210;SDS011;51794;52.758;55.792;2022-08-21T07:11:03;9.00;;;7.88;;
65210;SDS011;51794;52.758;55.792;2022-08-21T07:13:39;9.07;;;7.80;;
65210;SDS011;51794;52.758;55.792;2022-08-21T07:16:05;7.93;;;6.97;;
65210;SDS011;51794;52.758;55.792;2022-08-21T07:18:31;8.32;;;6.68;;
65210;SDS011;51794;52.758;55.792;2022-08-21T07:20:57;9.05;;;7.13;;
65210;SDS011;51794;52.758;55.792;2022-08-21T07:23:30;9.20;;;7.40;;
65210;SDS011;51794;52.758;55.792;2022-08-21T07:25:58;8.18;;;5.20;;
65210;SDS011;51794;52.758;55.792;2022-08-21T07:28:26;8.20;;;7.15;;
65210;SDS011;51794;52.758;55.792;2022-08-21T07:30:53;7.28;;;6.57;;
65210;SDS011;51794;52.758;55.792;2022-08-21T07:33:21;8.60;;;6.93;;
65210;SDS011;51794;52.758;55.792;2022-08-21T07:35:48;8.50;;;7.32;;
65210;SDS011;51794;52.758;55.792;2022-08-21T07:38:14;9.00;;;6.85;;
65210;SDS011;51794;52.758;55.792;2022-08-21T07:40:40;6.72;;;5.95;;
65210;SDS011;51794;52.758;55.792;2022-08-21T07:43:06;7.13;;;6.43;;
65210;SDS011;51794;52.758;55.792;2022-08-21T07:45:33;6.80;;;6.20;;
65210;SDS011;51794;52.758;55.792;2022-08-21T07:47:59;8.20;;;6.60;;
65210;SDS011;51794;52.758;55.792;2022-08-21T07:50:25;7.78;;;7.07;;
65210;SDS011;51794;52.758;55.792;2022-08-21T07:52:51;9.13;;;7.35;;
65210;SDS011;51794;52.758;55.792;2022-08-21T07:55:18;8.52;;;6.10;;
65210;SDS011;51794;52.758;55.792;2022-08-21T07:57:46;8.27;;;6.72;;
65210;SDS011;51794;52.758;55.792;2022-08-21T08:00:14;11.38;;;6.78;;
65210;SDS011;51794;52.758;55.792;2022-08-21T08:02:47;8.05;;;7.22;;
65210;SDS011;51794;52.758;55.792;2022-08-21T08:05:18;9.10;;;6.97;;
65210;SDS011;51794;52.758;55.792;2022-08-21T08:07:45;6.32;;;5.68;;
65210;SDS011;51794;52.758;55.792;2022-08-21T08:10:11;6.97;;;6.28;;
65210;SDS011;51794;52.758;55.792;2022-08-21T08:12:38;9.60;;;6.80;;
65210;SDS011;51794;52.758;55.792;2022-08-21T08:15:06;7.75;;;6.68;;
65210;SDS011;51794;52.758;55.792;2022-08-21T08:17:34;6.75;;;5.85;;
65210;SDS011;51794;52.758;55.792;2022-08-21T08:20:01;6.93;;;6.28;;
65210;SDS011;51794;52.758;55.792;2022-08-21T08:22:28;9.00;;;7.00;;
65210;SDS011;51794;52.758;55.792;2022-08-21T08:24:54;7.95;;;7.15;;
65210;SDS011;51794;52.758;55.792;2022-08-21T08:27:21;14.00;;;7.03;;
65210;SDS011;51794;52.758;55.792;2022-08-21T08:29:47;11.63;;;7.20;;
65210;SDS011;51794;52.758;55.792;2022-08-21T08:32:14;5.45;;;4.45;;
65210;SDS011;51794;52.758;55.792;2022-08-21T08:34:40;8.80;;;5.95;;
65210;SDS011;51794;52.758;55.792;2022-08-21T08:37:07;9.63;;;7.03;;
65210;SDS011;51794;52.758;55.792;2022-08-21T08:39:34;7.60;;;6.90;;
65210;SDS011;51794;52.758;55.792;2022-08-21T08:44:45;9.15;;;8.13;;
65210;SDS011;51794;52.758;55.792;2022-08-21T08:47:13;8.05;;;6.85;;
65210;SDS011;51794;52.758;55.792;2022-08-21T08:49:44;8.00;;;7.20;;
65210;SDS011;51794;52.758;55.792;2022-08-21T08:52:18;7.45;;;6.75;;
65210;SDS011;51794;52.758;55.792;2022-08-21T08:54:58;10.55;;;7.90;;
65210;SDS011;51794;52.758;55.792;2022-08-21T08:57:31;8.45;;;6.85;;
65210;SDS011;51794;52.758;55.792;2022-08-21T08:59:59;7.10;;;4.60;;
65210;SDS011;51794;52.758;55.792;2022-08-21T09:02:29;14.30;;;6.00;;
65210;SDS011;51794;52.758;55.792;2022-08-21T09:04:56;9.23;;;7.43;;
65210;SDS011;51794;52.758;55.792;2022-08-21T09:13:26;9.32;;;7.43;;
65210;SDS011;51794;52.758;55.792;2022-08-21T09:19:23;9.00;;;6.63;;
65210;SDS011;51794;52.758;55.792;2022-08-21T09:21:57;8.63;;;6.72;;
65210;SDS011;51794;52.758;55.792;2022-08-21T09:24:33;7.30;;;6.60;;
65210;SDS011;51794;52.758;55.792;2022-08-21T09:27:12;7.40;;;5.95;;
65210;SDS011;51794;52.758;55.792;2022-08-21T09:29:44;6.88;;;6.28;;
65210;SDS011;51794;52.758;55.792;2022-08-21T09:32:29;8.45;;;6.20;;
65210;SDS011;51794;52.758;55.792;2022-08-21T09:37:50;9.05;;;5.32;;
65210;SDS011;51794;52.758;55.792;2022-08-21T09:45:36;5.82;;;5.32;;
65210;SDS011;51794;52.758;55.792;2022-08-21T09:48:11;6.05;;;5.07;;
65210;SDS011;51794;52.758;55.792;2022-08-21T09:50:47;5.68;;;4.05;;
65210;SDS011;51794;52.758;55.792;2022-08-21T09:53:19;5.93;;;5.38;;
65210;SDS011;51794;52.758;55.792;2022-08-21T09:55:49;7.32;;;5.38;;
65210;SDS011;51794;52.758;55.792;2022-08-21T09:58:37;7.30;;;5.38;;
65210;SDS011;51794;52.758;55.792;2022-08-21T10:01:05;7.10;;;5.60;;
65210;SDS011;51794;52.758;55.792;2022-08-21T10:03:32;7.95;;;6.13;;
65210;SDS011;51794;52.758;55.792;2022-08-21T10:08:25;7.63;;;5.13;;
65210;SDS011;51794;52.758;55.792;2022-08-21T10:10:55;11.98;;;6.13;;
65210;SDS011;51794;52.758;55.792;2022-08-21T10:16:31;6.10;;;5.53;;
65210;SDS011;51794;52.758;55.792;2022-08-21T10:37:48;5.40;;;4.90;;
65210;SDS011;51794;52.758;55.792;2022-08-21T10:40:29;5.63;;;4.78;;
65210;SDS011;51794;52.758;55.792;2022-08-21T10:51:04;6.00;;;5.28;;
65210;SDS011;51794;52.758;55.792;2022-08-21T10:56:25;7.00;;;4.90;;
65210;SDS011;51794;52.758;55.792;2022-08-21T11:04:16;6.82;;;5.50;;
65210;SDS011;51794;52.758;55.792;2022-08-21T11:06:50;6.63;;;5.03;;
65210;SDS011;51794;52.758;55.792;2022-08-21T11:09:24;5.43;;;4.93;;
65210;SDS011;51794;52.758;55.792;2022-08-21T11:11:54;4.32;;;3.92;;
65210;SDS011;51794;52.758;55.792;2022-08-21T11:14:41;9.50;;;5.50;;
65210;SDS011;51794;52.758;55.792;2022-08-21T11:17:18;7.13;;;5.45;;
65210;SDS011;51794;52.758;55.792;2022-08-21T11:19:52;6.53;;;4.93;;
65210;SDS011;51794;52.758;55.792;2022-08-21T11:22:47;6.60;;;4.57;;
65210;SDS011;51794;52.758;55.792;2022-08-21T11:27:51;7.18;;;5.18;;
65210;SDS011;51794;52.758;55.792;2022-08-21T11:30:22;10.77;;;5.55;;
65210;SDS011;51794;52.758;55.792;2022-08-21T11:33:01;6.40;;;5.22;;
65210;SDS011;51794;52.758;55.792;2022-08-21T11:41:08;6.38;;;4.50;;
65210;SDS011;51794;52.758;55.792;2022-08-21T11:46:52;8.82;;;5.68;;
65210;SDS011;51794;52.758;55.792;2022-08-21T11:52:27;6.13;;;5.30;;
65210;SDS011;51794;52.758;55.792;2022-08-21T11:55:18;6.28;;;5.18;;
65210;SDS011;51794;52.758;55.792;2022-08-21T11:58:17;5.22;;;4.70;;
65210;SDS011;51794;52.758;55.792;2022-08-21T12:00:54;5.22;;;4.70;;
65210;SDS011;51794;52.758;55.792;2022-08-21T12:03:31;6.43;;;5.93;;
65210;SDS011;51794;52.758;55.792;2022-08-21T12:08:35;8.05;;;5.07;;
65210;SDS011;51794;52.758;55.792;2022-08-21T12:11:10;6.10;;;4.68;;
65210;SDS011;51794;52.758;55.792;2022-08-21T12:13:54;6.63;;;5.05;;
65210;SDS011;51794;52.758;55.792;2022-08-21T12:16:37;5.65;;;4.90;;
65210;SDS011;51794;52.758;55.792;2022-08-21T12:19:09;8.68;;;5.95;;
65210;SDS011;51794;52.758;55.792;2022-08-21T12:29:56;4.65;;;3.97;;
65210;SDS011;51794;52.758;55.792;2022-08-21T12:32:29;7.82;;;5.47;;
65210;SDS011;51794;52.758;55.792;2022-08-21T12:35:18;7.00;;;6.30;;
65210;SDS011;51794;52.758;55.792;2022-08-21T12:37:51;6.45;;;5.07;;
65210;SDS011;51794;52.758;55.792;2022-08-21T12:40:22;6.57;;;5.18;;
65210;SDS011;51794;52.758;55.792;2022-08-21T12:45:23;5.20;;;4.28;;
65210;SDS011;51794;52.758;55.792;2022-08-21T12:47:59;5.10;;;4.60;;
65210;SDS011;51794;52.758;55.792;2022-08-21T12:50:35;5.78;;;4.60;;
65210;SDS011;51794;52.758;55.792;2022-08-21T12:53:10;6.65;;;4.43;;
65210;SDS011;51794;52.758;55.792;2022-08-21T12:55:46;4.80;;;4.22;;
65210;SDS011;51794;52.758;55.792;2022-08-21T12:58:19;6.63;;;4.38;;
65210;SDS011;51794;52.758;55.792;2022-08-21T13:01:00;6.28;;;4.68;;
65210;SDS011;51794;52.758;55.792;2022-08-21T13:03:34;5.88;;;4.18;;
65210;SDS011;51794;52.758;55.792;2022-08-21T13:06:05;5.03;;;4.50;;
65210;SDS011;51794;52.758;55.792;2022-08-21T13:08:35;6.75;;;4.72;;
65210;SDS011;51794;52.758;55.792;2022-08-21T13:11:05;5.90;;;5.10;;
65210;SDS011;51794;52.758;55.792;2022-08-21T13:13:32;6.88;;;4.38;;
65210;SDS011;51794;52.758;55.792;2022-08-21T13:15:59;5.25;;;4.75;;
65210;SDS011;51794;52.758;55.792;2022-08-21T13:18:29;5.78;;;4.97;;
65210;SDS011;51794;52.758;55.792;2022-08-21T13:21:05;6.05;;;4.63;;
65210;SDS011;51794;52.758;55.792;2022-08-21T13:23:33;6.20;;;5.15;;
65210;SDS011;51794;52.758;55.792;2022-08-21T13:25:59;6.40;;;4.97;;
65210;SDS011;51794;52.758;55.792;2022-08-21T13:28:34;5.00;;;4.35;;
65210;SDS011;51794;52.758;55.792;2022-08-21T13:31:05;5.20;;;4.65;;
65210;SDS011;51794;52.758;55.792;2022-08-21T13:33:35;8.48;;;4.72;;
65210;SDS011;51794;52.758;55.792;2022-08-21T13:36:04;5.00;;;4.50;;
65210;SDS011;51794;52.758;55.792;2022-08-21T13:38:42;4.40;;;3.95;;
65210;SDS011;51794;52.758;55.792;2022-08-21T13:43:43;7.10;;;4.60;;
65210;SDS011;51794;52.758;55.792;2022-08-21T13:46:11;6.82;;;4.70;;
65210;SDS011;51794;52.758;55.792;2022-08-21T13:48:40;6.72;;;5.00;;
65210;SDS011;51794;52.758;55.792;2022-08-21T13:51:08;4.72;;;4.28;;
65210;SDS011;51794;52.758;55.792;2022-08-21T13:56:20;5.38;;;4.68;;
65210;SDS011;51794;52.758;55.792;2022-08-21T13:58:51;5.40;;;4.65;;
65210;SDS011;51794;52.758;55.792;2022-08-21T14:01:21;6.32;;;4.60;;
65210;SDS011;51794;52.758;55.792;2022-08-21T14:04:01;4.88;;;4.35;;
65210;SDS011;51794;52.758;55.792;2022-08-21T14:06:48;4.70;;;3.88;;
65210;SDS011;51794;52.758;55.792;2022-08-21T14:09:31;6.28;;;5.07;;
65210;SDS011;51794;52.758;55.792;2022-08-21T14:12:01;5.60;;;4.85;;
65210;SDS011;51794;52.758;55.792;2022-08-21T14:14:37;5.10;;;4.47;;
65210;SDS011;51794;52.758;55.792;2022-08-21T14:17:06;5.63;;;4.60;;
65210;SDS011;51794;52.758;55.792;2022-08-21T14:19:38;5.07;;;4.57;;
65210;SDS011;51794;52.758;55.792;2022-08-21T14:25:28;6.28;;;4.78;;
65210;SDS011;51794;52.758;55.792;2022-08-21T14:27:51;7.20;;;4.40;;
65210;SDS011;51794;52.758;55.792;2022-08-21T14:30:43;5.85;;;4.45;;
65210;SDS011;51794;52.758;55.792;2022-08-21T14:33:11;4.47;;;4.07;;
65210;SDS011;51794;52.758;55.792;2022-08-21T14:35:39;8.83;;;4.77;;
65210;SDS011;51794;52.758;55.792;2022-08-21T14:38:16;5.28;;;4.57;;
65210;SDS011;51794;52.758;55.792;2022-08-21T14:40:46;5.70;;;3.67;;
65210;SDS011;51794;52.758;55.792;2022-08-21T14:43:25;5.90;;;4.30;;
65210;SDS011;51794;52.758;55.792;2022-08-21T14:45:53;5.28;;;4.20;;
65210;SDS011;51794;52.758;55.792;2022-08-21T14:48:19;7.80;;;5.30;;
65210;SDS011;51794;52.758;55.792;2022-08-21T14:50:45;6.45;;;4.88;;
65210;SDS011;51794;52.758;55.792;2022-08-21T14:53:12;6.35;;;4.80;;
65210;SDS011;51794;52.758;55.792;2022-08-21T14:55:38;7.18;;;4.80;;
65210;SDS011;51794;52.758;55.792;2022-08-21T14:58:24;9.73;;;5.07;;
65210;SDS011;51794;52.758;55.792;2022-08-21T15:00:54;8.20;;;5.15;;
65210;SDS011;51794;52.758;55.792;2022-08-21T15:03:21;6.15;;;5.30;;
65210;SDS011;51794;52.758;55.792;2022-08-21T15:05:47;6.65;;;5.00;;
65210;SDS011;51794;52.758;55.792;2022-08-21T15:08:14;5.95;;;5.45;;
65210;SDS011;51794;52.758;55.792;2022-08-21T15:10:40;8.05;;;5.32;;
65210;SDS011;51794;52.758;55.792;2022-08-21T15:13:07;5.90;;;5.40;;
65210;SDS011;51794;52.758;55.792;2022-08-21T15:15:35;6.70;;;5.43;;
65210;SDS011;51794;52.758;55.792;2022-08-21T15:18:08;5.75;;;5.13;;
65210;SDS011;51794;52.758;55.792;2022-08-21T15:20:34;4.68;;;4.28;;
65210;SDS011;51794;52.758;55.792;2022-08-21T15:23:01;6.80;;;4.57;;
65210;SDS011;51794;52.758;55.792;2022-08-21T15:25:27;5.80;;;5.30;;
65210;SDS011;51794;52.758;55.792;2022-08-21T15:27:53;6.78;;;5.63;;
65210;SDS011;51794;52.758;55.792;2022-08-21T15:30:19;8.00;;;5.85;;
65210;SDS011;51794;52.758;55.792;2022-08-21T15:32:46;5.50;;;5.00;;
65210;SDS011;51794;52.758;55.792;2022-08-21T15:35:11;7.05;;;5.57;;
65210;SDS011;51794;52.758;55.792;2022-08-21T15:37:38;8.00;;;5.40;;
65210;SDS011;51794;52.758;55.792;2022-08-21T15:40:05;9.70;;;5.90;;
65210;SDS011;51794;52.758;55.792;2022-08-21T15:42:32;5.90;;;5.40;;
65210;SDS011;51794;52.758;55.792;2022-08-21T15:44:59;6.60;;;5.90;;
65210;SDS011;51794;52.758;55.792;2022-08-21T15:47:30;5.15;;;4.38;;
65210;SDS011;51794;52.758;55.792;2022-08-21T15:49:58;7.82;;;5.40;;
65210;SDS011;51794;52.758;55.792;2022-08-21T15:52:24;7.15;;;6.05;;
65210;SDS011;51794;52.758;55.792;2022-08-21T15:54:51;5.72;;;5.10;;
65210;SDS011;51794;52.758;55.792;2022-08-21T15:57:19;8.50;;;5.40;;
65210;SDS011;51794;52.758;55.792;2022-08-21T15:59:48;8.13;;;6.40;;
65210;SDS011;51794;52.758;55.792;2022-08-21T16:02:23;7.03;;;4.72;;
65210;SDS011;51794;52.758;55.792;2022-08-21T16:04:52;7.55;;;6.35;;
65210;SDS011;51794;52.758;55.792;2022-08-21T16:07:18;7.75;;;5.95;;
65210;SDS011;51794;52.758;55.792;2022-08-21T16:09:44;7.15;;;6.38;;
65210;SDS011;51794;52.758;55.792;2022-08-21T16:12:12;8.15;;;6.30;;
65210;SDS011;51794;52.758;55.792;2022-08-21T16:14:43;8.70;;;6.70;;
65210;SDS011;51794;52.758;55.792;2022-08-21T16:17:09;6.78;;;5.70;;
65210;SDS011;51794;52.758;55.792;2022-08-21T16:19:35;9.38;;;6.57;;
65210;SDS011;51794;52.758;55.792;2022-08-21T16:22:03;11.45;;;6.95;;